sensor_id;sensor_type;location;lat;lon;timestamp;temperature;humidity
46335;DHT22;32051;48.882;9.210;2023-06-22T10:47:06;32.30;95.70
46335;DHT22;32051;48.882;9.210;2023-06-22T10:49:32;32.40;96.30
46335;DHT22;32051;48.882;9.210;2023-06-22T10:51:58;32.40;95.50
46335;DHT22;32051;48.882;9.210;2023-06-22T10:54:23;32.50;94.10
46335;DHT22;32051;48.882;9.210;2023-06-22T10:56:49;32.50;95.10
46335;DHT22;32051;48.882;9.210;2023-06-22T10:59:16;32.60;95.20
46335;DHT22;32051;48.882;9.210;2023-06-22T11:01:42;32.50;94.70
46335;DHT22;32051;48.882;9.210;2023-06-22T11:04:07;32.40;94.70
46335;DHT22;32051;48.882;9.210;2023-06-22T11:06:33;32.40;95.30
46335;DHT22;32051;48.882;9.210;2023-06-22T11:08:59;32.30;94.60
46335;DHT22;32051;48.882;9.210;2023-06-22T11:11:25;32.20;94.70
46335;DHT22;32051;48.882;9.210;2023-06-22T11:13:52;32.20;95.10
46335;DHT22;32051;48.882;9.210;2023-06-22T11:16:17;32.20;95.20
46335;DHT22;32051;48.882;9.210;2023-06-22T11:18:43;32.30;95.50
46335;DHT22;32051;48.882;9.210;2023-06-22T11:21:09;32.30;95.50
46335;DHT22;32051;48.882;9.210;2023-06-22T11:23:34;32.30;94.90
46335;DHT22;32051;48.882;9.210;2023-06-22T11:26:00;32.30;95.20
46335;DHT22;32051;48.882;9.210;2023-06-22T11:28:26;32.30;95.60
46335;DHT22;32051;48.882;9.210;2023-06-22T11:30:52;32.30;96.00
46335;DHT22;32051;48.882;9.210;2023-06-22T11:33:17;32.30;96.20
46335;DHT22;32051;48.882;9.210;2023-06-22T11:35:43;32.20;95.10
46335;DHT22;32051;48.882;9.210;2023-06-22T11:38:09;32.10;95.30
46335;DHT22;32051;48.882;9.210;2023-06-22T11:40:34;31.90;95.20
46335;DHT22;32051;48.882;9.210;2023-06-22T11:43:00;31.80;95.80
46335;DHT22;32051;48.882;9.210;2023-06-22T11:45:27;31.80;95.50
46335;DHT22;32051;48.882;9.210;2023-06-22T11:47:52;31.80;95.50
46335;DHT22;32051;48.882;9.210;2023-06-22T11:50:18;32.00;95.90
46335;DHT22;32051;48.882;9.210;2023-06-22T11:52:44;32.00;94.40
46335;DHT22;32051;48.882;9.210;2023-06-22T11:55:09;32.00;95.20
46335;DHT22;32051;48.882;9.210;2023-06-22T11:57:36;31.90;94.50
46335;DHT22;32051;48.882;9.210;2023-06-22T12:00:03;31.90;95.10
46335;DHT22;32051;48.882;9.210;2023-06-22T12:02:43;31.90;95.30
46335;DHT22;32051;48.882;9.210;2023-06-22T12:05:10;31.90;95.60
46335;DHT22;32051;48.882;9.210;2023-06-22T12:07:36;31.90;96.20
46335;DHT22;32051;48.882;9.210;2023-06-22T12:10:03;31.80;95.40
46335;DHT22;32051;48.882;9.210;2023-06-22T12:14:55;31.50;95.90
46335;DHT22;32051;48.882;9.210;2023-06-22T12:17:21;31.40;95.90
46335;DHT22;32051;48.882;9.210;2023-06-22T12:19:46;31.30;95.60
46335;DHT22;32051;48.882;9.210;2023-06-22T13:50:00;31.70;96.40
46335;DHT22;32051;48.882;9.210;2023-06-22T13:52:26;31.90;96.10
46335;DHT22;32051;48.882;9.210;2023-06-22T13:54:51;31.90;95.80
46335;DHT22;32051;48.882;9.210;2023-06-22T13:57:17;32.00;95.70
46335;DHT22;32051;48.882;9.210;2023-06-22T13:59:43;32.10;95.10
46335;DHT22;32051;48.882;9.210;2023-06-22T14:02:08;32.10;96.30
46335;DHT22;32051;48.882;9.210;2023-06-22T14:04:34;32.00;95.60
46335;DHT22;32051;48.882;9.210;2023-06-22T14:07:00;32.00;96.60
46335;DHT22;32051;48.882;9.210;2023-06-22T14:09:25;31.90;95.60
46335;DHT22;32051;48.882;9.210;2023-06-22T14:11:51;31.80;96.00
46335;DHT22;32051;48.882;9.210;2023-06-22T14:14:17;31.70;96.10
46335;DHT22;32051;48.882;9.210;2023-06-22T14:16:42;31.70;95.60
46335;DHT22;32051;48.882;9.210;2023-06-22T14:19:08;31.60;96.00
46335;DHT22;32051;48.882;9.210;2023-06-22T14:21:34;31.60;96.00
46335;DHT22;32051;48.882;9.210;2023-06-22T14:23:59;31.60;96.10
46335;DHT22;32051;48.882;9.210;2023-06-22T14:26:25;31.60;96.00
46335;DHT22;32051;48.882;9.210;2023-06-22T14:28:52;31.80;95.90
46335;DHT22;32051;48.882;9.210;2023-06-22T14:31:19;32.20;95.20
46335;DHT22;32051;48.882;9.210;2023-06-22T14:33:49;32.50;95.70
46335;DHT22;32051;48.882;9.210;2023-06-22T14:36:18;32.90;95.00
46335;DHT22;32051;48.882;9.210;2023-06-22T14:38:44;33.10;94.40
46335;DHT22;32051;48.882;9.210;2023-06-22T14:41:09;33.10;94.40
46335;DHT22;32051;48.882;9.210;2023-06-22T14:43:35;33.10;95.40
46335;DHT22;32051;48.882;9.210;2023-06-22T14:46:01;33.40;94.90
46335;DHT22;32051;48.882;9.210;2023-06-22T14:48:26;33.50;93.90
46335;DHT22;32051;48.882;9.210;2023-06-22T14:50:53;33.60;94.20
46335;DHT22;32051;48.882;9.210;2023-06-22T15:22:34;33.70;91.40
46335;DHT22;32051;48.882;9.210;2023-06-22T15:44:34;37.50;67.00
46335;DHT22;32051;48.882;9.210;2023-06-22T15:49:26;34.10;69.50
46335;DHT22;32051;48.882;9.210;2023-06-22T15:56:45;33.60;71.20
46335;DHT22;32051;48.882;9.210;2023-06-22T15:59:11;32.80;70.70
46335;DHT22;32051;48.882;9.210;2023-06-22T16:01:36;32.70;72.20
46335;DHT22;32051;48.882;9.210;2023-06-22T16:04:02;32.60;72.00
46335;DHT22;32051;48.882;9.210;2023-06-22T16:06:28;32.50;72.00
46335;DHT22;32051;48.882;9.210;2023-06-22T16:11:21;32.30;72.20
46335;DHT22;32051;48.882;9.210;2023-06-22T16:13:46;32.10;73.40
46335;DHT22;32051;48.882;9.210;2023-06-22T16:16:12;31.90;74.40
46335;DHT22;32051;48.882;9.210;2023-06-22T16:18:38;31.70;74.40
46335;DHT22;32051;48.882;9.210;2023-06-22T16:21:05;31.60;75.10
46335;DHT22;32051;48.882;9.210;2023-06-22T16:23:31;31.40;75.80
46335;DHT22;32051;48.882;9.210;2023-06-22T16:25:56;31.30;75.00
46335;DHT22;32051;48.882;9.210;2023-06-22T16:28:22;31.20;76.00
46335;DHT22;32051;48.882;9.210;2023-06-22T16:30:48;31.10;76.20
46335;DHT22;32051;48.882;9.210;2023-06-22T16:33:13;31.00;76.70
46335;DHT22;32051;48.882;9.210;2023-06-22T16:35:39;30.90;77.20
46335;DHT22;32051;48.882;9.210;2023-06-22T16:38:06;30.90;78.10
46335;DHT22;32051;48.882;9.210;2023-06-22T16:40:32;30.80;77.60
46335;DHT22;32051;48.882;9.210;2023-06-22T16:42:58;30.80;78.60
46335;DHT22;32051;48.882;9.210;2023-06-22T16:45:24;30.70;79.00
46335;DHT22;32051;48.882;9.210;2023-06-22T16:47:50;30.70;76.40
46335;DHT22;32051;48.882;9.210;2023-06-22T16:50:17;30.60;76.20
46335;DHT22;32051;48.882;9.210;2023-06-22T16:52:43;30.50;75.60
46335;DHT22;32051;48.882;9.210;2023-06-22T16:55:12;30.50;76.30
46335;DHT22;32051;48.882;9.210;2023-06-22T16:57:38;30.40;76.10
46335;DHT22;32051;48.882;9.210;2023-06-22T17:00:05;30.40;78.10
46335;DHT22;32051;48.882;9.210;2023-06-22T17:02:47;30.40;78.30
46335;DHT22;32051;48.882;9.210;2023-06-22T17:05:14;30.40;78.60
46335;DHT22;32051;48.882;9.210;2023-06-22T17:07:43;30.40;77.90
46335;DHT22;32051;48.882;9.210;2023-06-22T17:10:13;30.40;78.50
46335;DHT22;32051;48.882;9.210;2023-06-22T17:12:39;30.30;78.40
46335;DHT22;32051;48.882;9.210;2023-06-22T17:15:08;30.20;77.90
46335;DHT22;32051;48.882;9.210;2023-06-22T17:17:36;30.10;77.70
46335;DHT22;32051;48.882;9.210;2023-06-22T17:20:03;29.90;78.40
46335;DHT22;32051;48.882;9.210;2023-06-22T17:25:11;29.60;79.10
46335;DHT22;32051;48.882;9.210;2023-06-22T17:27:41;29.50;80.20
46335;DHT22;32051;48.882;9.210;2023-06-22T17:30:09;29.40;80.20
46335;DHT22;32051;48.882;9.210;2023-06-22T17:32:35;29.30;80.80
46335;DHT22;32051;48.882;9.210;2023-06-22T17:35:03;29.20;80.80
46335;DHT22;32051;48.882;9.210;2023-06-22T17:40:20;29.00;79.40
46335;DHT22;32051;48.882;9.210;2023-06-22T17:42:46;28.90;79.40
46335;DHT22;32051;48.882;9.210;2023-06-22T17:45:16;28.80;80.20
46335;DHT22;32051;48.882;9.210;2023-06-22T17:47:46;28.80;80.60
46335;DHT22;32051;48.882;9.210;2023-06-22T17:50:12;28.70;80.70
46335;DHT22;32051;48.882;9.210;2023-06-22T17:52:38;28.60;81.20
46335;DHT22;32051;48.882;9.210;2023-06-22T17:55:04;28.50;81.00
46335;DHT22;32051;48.882;9.210;2023-06-22T17:57:37;28.40;80.90
46335;DHT22;32051;48.882;9.210;2023-06-22T18:00:04;28.30;80.60
46335;DHT22;32051;48.882;9.210;2023-06-22T18:02:40;28.20;81.10
46335;DHT22;32051;48.882;9.210;2023-06-22T18:05:08;28.10;81.30
46335;DHT22;32051;48.882;9.210;2023-06-22T18:07:34;28.00;82.10
46335;DHT22;32051;48.882;9.210;2023-06-22T18:10:08;27.90;83.10
46335;DHT22;32051;48.882;9.210;2023-06-22T18:12:35;27.80;83.20
46335;DHT22;32051;48.882;9.210;2023-06-22T18:15:02;27.70;83.60
46335;DHT22;32051;48.882;9.210;2023-06-22T18:17:28;27.70;84.00
46335;DHT22;32051;48.882;9.210;2023-06-22T18:19:56;27.60;84.20
46335;DHT22;32051;48.882;9.210;2023-06-22T18:22:22;27.50;84.70
46335;DHT22;32051;48.882;9.210;2023-06-22T18:24:52;27.50;85.70
46335;DHT22;32051;48.882;9.210;2023-06-22T18:27:18;27.40;85.30
46335;DHT22;32051;48.882;9.210;2023-06-22T18:29:44;27.30;85.10
46335;DHT22;32051;48.882;9.210;2023-06-22T18:32:13;27.30;86.00
46335;DHT22;32051;48.882;9.210;2023-06-22T18:34:40;27.20;86.50
46335;DHT22;32051;48.882;9.210;2023-06-22T18:37:09;27.20;86.60
46335;DHT22;32051;48.882;9.210;2023-06-22T18:39:38;27.10;87.50
46335;DHT22;32051;48.882;9.210;2023-06-22T18:42:08;27.00;87.50
46335;DHT22;32051;48.882;9.210;2023-06-22T18:44:34;26.90;87.80
46335;DHT22;32051;48.882;9.210;2023-06-22T18:47:06;26.80;88.00
46335;DHT22;32051;48.882;9.210;2023-06-22T18:57:17;26.40;89.80
46335;DHT22;32051;48.882;9.210;2023-06-22T18:59:50;26.30;89.90
46335;DHT22;32051;48.882;9.210;2023-06-22T19:13:16;25.70;91.20
46335;DHT22;32051;48.882;9.210;2023-06-22T19:16:07;25.50;91.50
46335;DHT22;32051;48.882;9.210;2023-06-22T19:18:39;25.40;91.60
46335;DHT22;32051;48.882;9.210;2023-06-22T19:21:20;25.40;92.00
46335;DHT22;32051;48.882;9.210;2023-06-22T19:23:46;25.30;92.00
46335;DHT22;32051;48.882;9.210;2023-06-22T19:26:14;25.20;92.30
46335;DHT22;32051;48.882;9.210;2023-06-22T19:28:53;25.10;92.50
46335;DHT22;32051;48.882;9.210;2023-06-22T19:31:21;25.00;92.90
46335;DHT22;32051;48.882;9.210;2023-06-22T19:33:52;25.00;93.40
46335;DHT22;32051;48.882;9.210;2023-06-22T19:36:20;24.90;94.40
46335;DHT22;32051;48.882;9.210;2023-06-22T19:38:46;24.90;95.40
46335;DHT22;32051;48.882;9.210;2023-06-22T19:41:12;24.70;96.30
46335;DHT22;32051;48.882;9.210;2023-06-22T19:43:38;24.60;97.00
46335;DHT22;32051;48.882;9.210;2023-06-22T19:46:06;24.50;97.70
46335;DHT22;32051;48.882;9.210;2023-06-22T19:48:32;24.40;98.10
46335;DHT22;32051;48.882;9.210;2023-06-22T19:51:07;24.30;98.80
46335;DHT22;32051;48.882;9.210;2023-06-22T19:53:33;24.10;99.30
46335;DHT22;32051;48.882;9.210;2023-06-22T19:55:59;24.00;99.70
46335;DHT22;32051;48.882;9.210;2023-06-22T19:58:26;23.90;99.90
46335;DHT22;32051;48.882;9.210;2023-06-22T20:00:54;23.80;99.90
46335;DHT22;32051;48.882;9.210;2023-06-22T20:03:37;23.70;99.90
46335;DHT22;32051;48.882;9.210;2023-06-22T20:06:11;23.70;99.90
46335;DHT22;32051;48.882;9.210;2023-06-22T20:08:49;23.70;99.90
46335;DHT22;32051;48.882;9.210;2023-06-22T20:11:28;23.60;99.90
46335;DHT22;32051;48.882;9.210;2023-06-22T20:14:01;23.60;99.90
46335;DHT22;32051;48.882;9.210;2023-06-22T20:16:27;23.60;99.90
46335;DHT22;32051;48.882;9.210;2023-06-22T20:19:10;23.60;99.90
46335;DHT22;32051;48.882;9.210;2023-06-22T20:21:40;23.50;99.90
46335;DHT22;32051;48.882;9.210;2023-06-22T20:24:08;23.50;99.90
46335;DHT22;32051;48.882;9.210;2023-06-22T20:26:42;23.50;99.90
46335;DHT22;32051;48.882;9.210;2023-06-22T20:29:28;23.50;99.90
46335;DHT22;32051;48.882;9.210;2023-06-22T20:32:09;23.50;99.90
46335;DHT22;32051;48.882;9.210;2023-06-22T20:34:45;23.40;99.90
46335;DHT22;32051;48.882;9.210;2023-06-22T20:37:14;23.40;99.90
46335;DHT22;32051;48.882;9.210;2023-06-22T20:39:40;23.40;99.90
46335;DHT22;32051;48.882;9.210;2023-06-22T20:42:06;23.30;99.90
46335;DHT22;32051;48.882;9.210;2023-06-22T20:44:33;23.20;99.90
46335;DHT22;32051;48.882;9.210;2023-06-22T20:46:59;23.20;99.90
46335;DHT22;32051;48.882;9.210;2023-06-22T20:49:25;23.20;99.90
46335;DHT22;32051;48.882;9.210;2023-06-22T20:51:53;23.20;99.90
46335;DHT22;32051;48.882;9.210;2023-06-22T20:54:19;23.20;99.90
46335;DHT22;32051;48.882;9.210;2023-06-22T20:56:45;23.10;99.90
46335;DHT22;32051;48.882;9.210;2023-06-22T20:59:12;23.10;99.90
46335;DHT22;32051;48.882;9.210;2023-06-22T21:01:37;23.10;99.90
46335;DHT22;32051;48.882;9.210;2023-06-22T21:04:03;23.10;99.90
46335;DHT22;32051;48.882;9.210;2023-06-22T21:06:29;23.00;99.90
46335;DHT22;32051;48.882;9.210;2023-06-22T21:08:55;22.90;99.90
46335;DHT22;32051;48.882;9.210;2023-06-22T21:11:21;22.80;99.90
46335;DHT22;32051;48.882;9.210;2023-06-22T21:13:47;22.60;99.90
46335;DHT22;32051;48.882;9.210;2023-06-22T21:16:12;22.50;99.90
46335;DHT22;32051;48.882;9.210;2023-06-22T21:18:38;22.40;99.90
46335;DHT22;32051;48.882;9.210;2023-06-22T21:21:04;22.30;99.90
46335;DHT22;32051;48.882;9.210;2023-06-22T21:23:30;22.20;99.90
46335;DHT22;32051;48.882;9.210;2023-06-22T21:25:55;22.00;99.90
46335;DHT22;32051;48.882;9.210;2023-06-22T21:28:21;21.90;99.90
46335;DHT22;32051;48.882;9.210;2023-06-22T21:30:47;21.90;99.90
46335;DHT22;32051;48.882;9.210;2023-06-22T21:33:13;21.80;99.90
46335;DHT22;32051;48.882;9.210;2023-06-22T21:35:38;21.70;99.90
46335;DHT22;32051;48.882;9.210;2023-06-22T21:38:04;21.60;99.90
46335;DHT22;32051;48.882;9.210;2023-06-22T21:40:30;21.50;99.90
46335;DHT22;32051;48.882;9.210;2023-06-22T21:42:55;21.50;99.90
46335;DHT22;32051;48.882;9.210;2023-06-22T21:45:23;21.40;99.90
46335;DHT22;32051;48.882;9.210;2023-06-22T21:47:49;21.30;99.90
46335;DHT22;32051;48.882;9.210;2023-06-22T21:50:15;21.20;99.90
46335;DHT22;32051;48.882;9.210;2023-06-22T21:52:40;21.10;99.90
46335;DHT22;32051;48.882;9.210;2023-06-22T21:55:06;20.90;99.90
46335;DHT22;32051;48.882;9.210;2023-06-22T21:57:32;20.80;99.90
46335;DHT22;32051;48.882;9.210;2023-06-22T21:59:58;20.90;99.90
46335;DHT22;32051;48.882;9.210;2023-06-22T22:02:23;20.80;99.90
46335;DHT22;32051;48.882;9.210;2023-06-22T22:04:49;20.80;99.90
46335;DHT22;32051;48.882;9.210;2023-06-22T22:07:17;20.80;99.90
46335;DHT22;32051;48.882;9.210;2023-06-22T22:09:43;20.80;99.90
46335;DHT22;32051;48.882;9.210;2023-06-22T22:12:09;20.70;99.90
46335;DHT22;32051;48.882;9.210;2023-06-22T22:14:35;20.70;99.90
46335;DHT22;32051;48.882;9.210;2023-06-22T22:17:01;20.70;99.90
46335;DHT22;32051;48.882;9.210;2023-06-22T22:19:26;20.70;99.90
46335;DHT22;32051;48.882;9.210;2023-06-22T22:21:52;20.70;99.90
46335;DHT22;32051;48.882;9.210;2023-06-22T22:24:18;20.70;99.90
46335;DHT22;32051;48.882;9.210;2023-06-22T22:26:44;20.70;99.90
46335;DHT22;32051;48.882;9.210;2023-06-22T22:29:09;20.70;99.90
46335;DHT22;32051;48.882;9.210;2023-06-22T22:31:35;20.70;99.90
46335;DHT22;32051;48.882;9.210;2023-06-22T22:34:07;20.70;99.90
46335;DHT22;32051;48.882;9.210;2023-06-22T22:36:35;20.60;99.90
46335;DHT22;32051;48.882;9.210;2023-06-22T22:39:01;20.60;99.90
46335;DHT22;32051;48.882;9.210;2023-06-22T22:41:27;20.60;99.90
46335;DHT22;32051;48.882;9.210;2023-06-22T22:43:54;20.60;99.90
46335;DHT22;32051;48.882;9.210;2023-06-22T22:46:21;20.60;99.90
46335;DHT22;32051;48.882;9.210;2023-06-22T22:48:46;20.60;99.90
46335;DHT22;32051;48.882;9.210;2023-06-22T22:51:13;20.50;99.90
46335;DHT22;32051;48.882;9.210;2023-06-22T22:53:39;20.50;99.90
46335;DHT22;32051;48.882;9.210;2023-06-22T22:56:06;20.50;99.90
46335;DHT22;32051;48.882;9.210;2023-06-22T22:58:32;20.50;99.90
46335;DHT22;32051;48.882;9.210;2023-06-22T23:00:58;20.40;99.90
46335;DHT22;32051;48.882;9.210;2023-06-22T23:03:25;20.50;99.90
46335;DHT22;32051;48.882;9.210;2023-06-22T23:05:51;20.40;99.90
46335;DHT22;32051;48.882;9.210;2023-06-22T23:08:17;20.50;99.90
46335;DHT22;32051;48.882;9.210;2023-06-22T23:10:43;20.50;99.90
46335;DHT22;32051;48.882;9.210;2023-06-22T23:13:08;20.50;99.90
46335;DHT22;32051;48.882;9.210;2023-06-22T23:15:34;20.50;99.90
46335;DHT22;32051;48.882;9.210;2023-06-22T23:18:00;20.50;99.90
46335;DHT22;32051;48.882;9.210;2023-06-22T23:20:26;20.50;99.90
46335;DHT22;32051;48.882;9.210;2023-06-22T23:22:55;20.50;99.90
46335;DHT22;32051;48.882;9.210;2023-06-22T23:25:24;20.60;99.90
46335;DHT22;32051;48.882;9.210;2023-06-22T23:27:50;20.60;99.90
46335;DHT22;32051;48.882;9.210;2023-06-22T23:30:20;20.60;99.90
46335;DHT22;32051;48.882;9.210;2023-06-22T23:32:46;20.60;99.90
46335;DHT22;32051;48.882;9.210;2023-06-22T23:35:12;20.60;99.90
46335;DHT22;32051;48.882;9.210;2023-06-22T23:37:38;20.60;99.90
46335;DHT22;32051;48.882;9.210;2023-06-22T23:40:06;20.60;99.90
46335;DHT22;32051;48.882;9.210;2023-06-22T23:42:36;20.60;99.90
46335;DHT22;32051;48.882;9.210;2023-06-22T23:45:02;20.60;99.90
46335;DHT22;32051;48.882;9.210;2023-06-22T23:47:29;20.60;99.90
46335;DHT22;32051;48.882;9.210;2023-06-22T23:49:55;20.60;99.90
46335;DHT22;32051;48.882;9.210;2023-06-22T23:52:21;20.60;99.90
46335;DHT22;32051;48.882;9.210;2023-06-22T23:54:47;20.70;99.90
46335;DHT22;32051;48.882;9.210;2023-06-22T23:57:12;20.60;99.90
46335;DHT22;32051;48.882;9.210;2023-06-22T23:59:38;20.60;99.90
